Time;durP1;ratioP1;P1;durP2;ratioP2;P2;SDS_P1;SDS_P2;PMS_P1;PMS_P2;Temp;Humidity;BMP_temperature;BMP_pressure;BME280_temperature;BME280_humidity;BME280_pressure;Samples;Min_cycle;Max_cycle;Signal;HPM_P1;HPM_P2
2021/05/20 00:00:11;;;;;;;;;;;20.80;40.90;;;;;;466175;255;1229;-74
2021/05/20 00:02:12;;;;;;;;;;;20.80;41.00;;;;;;466093;256;1315;-74
2021/05/20 00:04:13;;;;;;;;;;;20.80;41.00;;;;;;466146;256;1215;-74
2021/05/20 00:06:14;;;;;;;;;;;20.80;40.90;;;;;;466069;256;1151;-74
2021/05/20 00:08:16;;;;;;;;;;;20.80;40.90;;;;;;466187;255;1135;-74
2021/05/20 00:10:17;;;;;;;;;;;20.90;40.80;;;;;;466162;256;980;-74
2021/05/20 00:12:18;;;;;;;;;;;20.90;40.80;;;;;;466197;256;2174;-74
2021/05/20 00:14:20;;;;;;;;;;;20.90;40.80;;;;;;466255;255;1132;-74
2021/05/20 00:16:21;;;;;;;;;;;20.90;40.80;;;;;;466162;256;1239;-74
2021/05/20 00:18:23;;;;;;;;;;;20.90;40.80;;;;;;466322;255;1142;-74
2021/05/20 00:20:24;;;;;;;;;;;20.90;40.80;;;;;;466208;256;1141;-74
2021/05/20 00:22:25;;;;;;;;;;;20.90;40.80;;;;;;466246;255;1147;-74
2021/05/20 00:24:27;;;;;;;;;;;20.90;40.70;;;;;;466262;256;1065;-74
2021/05/20 00:26:28;;;;;;;;;;;20.90;40.70;;;;;;466149;255;1303;-74
2021/05/20 00:28:29;;;;;;;;;;;21.00;40.70;;;;;;466118;256;1132;-75
2021/05/20 00:30:30;;;;;;;;;;;20.90;40.70;;;;;;466112;255;1092;-74
2021/05/20 00:32:32;;;;;;;;;;;21.00;40.70;;;;;;466054;255;2243;-75
2021/05/20 00:34:33;;;;;;;;;;;20.90;40.80;;;;;;466116;256;1068;-74
2021/05/20 00:36:34;;;;;;;;;;;20.90;40.90;;;;;;466110;256;1246;-74
2021/05/20 00:38:35;;;;;;;;;;;20.90;40.90;;;;;;466228;256;1122;-74
2021/05/20 00:40:37;;;;;;;;;;;20.90;40.80;;;;;;466164;256;1085;-74
2021/05/20 00:42:38;;;;;;;;;;;20.90;40.80;;;;;;466187;255;1112;-74
2021/05/20 00:44:39;;;;;;;;;;;21.00;40.80;;;;;;466225;256;1004;-74
2021/05/20 00:46:41;;;;;;;;;;;21.00;40.80;;;;;;466239;255;1317;-75
2021/05/20 00:48:42;;;;;;;;;;;20.90;40.80;;;;;;466260;256;1258;-74
2021/05/20 00:50:43;;;;;;;;;;;21.00;40.80;;;;;;466199;255;1315;-74
2021/05/20 00:52:44;;;;;;;;;;;20.90;40.90;;;;;;466088;255;2201;-74
2021/05/20 00:54:46;;;;;;;;;;;20.90;41.00;;;;;;466097;255;1031;-74
2021/05/20 00:56:47;;;;;;;;;;;20.90;41.00;;;;;;466104;256;1192;-74
2021/05/20 00:58:48;;;;;;;;;;;20.90;41.00;;;;;;466145;255;1036;-75
2021/05/20 01:00:50;;;;;;;;;;;20.90;40.90;;;;;;466076;256;1123;-74
2021/05/20 01:02:51;;;;;;;;;;;20.90;40.90;;;;;;466168;255;1122;-74
2021/05/20 01:04:52;;;;;;;;;;;20.90;40.90;;;;;;466261;255;1013;-74
2021/05/20 01:06:53;;;;;;;;;;;20.90;41.00;;;;;;466257;255;1298;-74
2021/05/20 01:08:55;;;;;;;;;;;20.90;41.10;;;;;;466217;255;1081;-74
2021/05/20 01:10:56;;;;;;;;;;;20.90;41.10;;;;;;466105;255;1055;-75
2021/05/20 01:12:57;;;;;;;;;;;20.90;41.10;;;;;;466200;256;2193;-74
2021/05/20 01:14:59;;;;;;;;;;;20.90;41.10;;;;;;466202;255;1034;-74
2021/05/20 01:17:00;;;;;;;;;;;20.80;41.10;;;;;;466254;255;1038;-74
2021/05/20 01:19:01;;;;;;;;;;;20.80;41.10;;;;;;466158;256;1048;-74
2021/05/20 01:21:02;;;;;;;;;;;20.90;41.10;;;;;;466162;255;1234;-74
2021/05/20 01:23:04;;;;;;;;;;;20.90;41.10;;;;;;466180;256;1083;-74
2021/05/20 01:25:05;;;;;;;;;;;20.80;41.10;;;;;;466089;255;1054;-75
2021/05/20 01:27:06;;;;;;;;;;;20.80;41.20;;;;;;466033;256;1234;-74
2021/05/20 01:29:08;;;;;;;;;;;20.80;41.30;;;;;;466270;256;944;-74
2021/05/20 01:31:09;;;;;;;;;;;20.80;41.30;;;;;;466210;256;1230;-74
2021/05/20 01:33:10;;;;;;;;;;;20.80;41.30;;;;;;466217;255;2209;-74
2021/05/20 01:35:12;;;;;;;;;;;20.80;41.30;;;;;;466196;256;1047;-74
2021/05/20 01:37:13;;;;;;;;;;;20.80;41.20;;;;;;466211;256;1130;-74
2021/05/20 01:39:14;;;;;;;;;;;20.80;41.20;;;;;;466288;256;1072;-74
2021/05/20 01:41:16;;;;;;;;;;;20.90;41.10;;;;;;466270;255;1124;-75
2021/05/20 01:43:17;;;;;;;;;;;20.90;41.20;;;;;;466226;256;1197;-75
2021/05/20 01:45:18;;;;;;;;;;;20.80;41.30;;;;;;466116;256;1167;-74
2021/05/20 01:47:19;;;;;;;;;;;20.90;41.20;;;;;;466189;256;988;-74
2021/05/20 01:49:21;;;;;;;;;;;20.90;41.20;;;;;;466149;256;1167;-74
2021/05/20 01:51:22;;;;;;;;;;;20.90;41.10;;;;;;466119;255;1285;-74
2021/05/20 01:53:26;;;;;;;;;;;20.90;41.10;;;;;;466193;255;2204;-74
2021/05/20 01:55:27;;;;;;;;;;;20.80;41.10;;;;;;466163;256;1087;-74
2021/05/20 01:57:29;;;;;;;;;;;20.80;41.20;;;;;;466145;256;1178;-74
2021/05/20 01:59:30;;;;;;;;;;;20.80;41.30;;;;;;466256;255;1073;-74
2021/05/20 02:01:31;;;;;;;;;;;20.80;41.40;;;;;;466189;256;994;-74
2021/05/20 02:03:33;;;;;;;;;;;20.70;41.50;;;;;;466206;256;1031;-74
2021/05/20 02:05:34;;;;;;;;;;;20.70;41.70;;;;;;466211;255;1005;-74
2021/05/20 02:07:35;;;;;;;;;;;20.70;41.60;;;;;;466216;256;956;-74
2021/05/20 02:09:36;;;;;;;;;;;20.70;41.50;;;;;;466243;255;1235;-74
2021/05/20 02:11:38;;;;;;;;;;;20.80;41.40;;;;;;466173;255;1143;-74
2021/05/20 02:13:39;;;;;;;;;;;20.80;41.50;;;;;;466179;256;2197;-74
2021/05/20 02:15:40;;;;;;;;;;;20.90;41.40;;;;;;466103;255;997;-75
2021/05/20 02:17:41;;;;;;;;;;;20.90;41.40;;;;;;466203;256;992;-74
2021/05/20 02:19:43;;;;;;;;;;;20.90;41.40;;;;;;466143;255;1008;-74
2021/05/20 02:21:44;;;;;;;;;;;20.90;41.40;;;;;;466168;256;1058;-74
2021/05/20 02:23:45;;;;;;;;;;;20.90;41.40;;;;;;466340;255;1084;-74
2021/05/20 02:25:47;;;;;;;;;;;20.90;41.50;;;;;;466228;256;985;-75
2021/05/20 02:27:48;;;;;;;;;;;20.80;41.50;;;;;;466170;256;1214;-74
2021/05/20 02:29:49;;;;;;;;;;;20.70;41.70;;;;;;466222;255;1073;-74
2021/05/20 02:31:50;;;;;;;;;;;20.70;41.60;;;;;;466190;255;1029;-74
2021/05/20 02:33:52;;;;;;;;;;;20.70;41.60;;;;;;466163;255;2206;-74
2021/05/20 02:35:53;;;;;;;;;;;20.80;41.50;;;;;;466114;256;1069;-74
2021/05/20 02:37:54;;;;;;;;;;;20.80;41.50;;;;;;466128;255;1278;-74
2021/05/20 02:39:56;;;;;;;;;;;20.80;41.60;;;;;;466177;255;1031;-74
2021/05/20 02:41:57;;;;;;;;;;;20.80;41.60;;;;;;466110;256;1291;-74
2021/05/20 02:43:58;;;;;;;;;;;20.80;41.60;;;;;;466174;255;1208;-74
2021/05/20 02:45:59;;;;;;;;;;;20.80;41.40;;;;;;466118;256;996;-74
2021/05/20 02:48:01;;;;;;;;;;;20.90;41.40;;;;;;466256;255;1222;-74
2021/05/20 02:50:02;;;;;;;;;;;20.90;41.30;;;;;;466209;256;1007;-74
2021/05/20 02:52:03;;;;;;;;;;;20.90;41.20;;;;;;466154;255;1179;-74
2021/05/20 02:54:05;;;;;;;;;;;20.90;41.20;;;;;;466250;256;2212;-74
2021/05/20 02:56:06;;;;;;;;;;;20.80;41.20;;;;;;466157;256;1181;-74
2021/05/20 02:58:07;;;;;;;;;;;20.80;41.30;;;;;;466204;256;1014;-74
2021/05/20 03:00:09;;;;;;;;;;;20.80;41.30;;;;;;466224;256;1188;-74
2021/05/20 03:02:10;;;;;;;;;;;20.80;41.30;;;;;;466193;256;1351;-74
2021/05/20 03:04:11;;;;;;;;;;;20.80;41.30;;;;;;466153;255;1074;-74
2021/05/20 03:06:12;;;;;;;;;;;20.80;41.30;;;;;;466107;256;1134;-74
2021/05/20 03:08:15;;;;;;;;;;;20.80;41.20;;;;;;466135;255;1183;-74
2021/05/20 03:10:15;;;;;;;;;;;20.90;41.10;;;;;;466015;255;1361;-74
2021/05/20 03:12:16;;;;;;;;;;;20.90;41.10;;;;;;466114;255;1099;-74
2021/05/20 03:14:17;;;;;;;;;;;20.90;41.00;;;;;;466201;255;2185;-74
2021/05/20 03:16:19;;;;;;;;;;;20.90;41.00;;;;;;466096;256;1096;-75
2021/05/20 03:18:20;;;;;;;;;;;20.90;41.00;;;;;;466251;256;1074;-74
2021/05/20 03:20:21;;;;;;;;;;;20.90;40.90;;;;;;466238;256;999;-74
2021/05/20 03:22:23;;;;;;;;;;;20.80;41.00;;;;;;466204;256;969;-75
2021/05/20 03:24:24;;;;;;;;;;;20.80;41.00;;;;;;466269;255;1062;-74
2021/05/20 03:26:25;;;;;;;;;;;20.70;41.00;;;;;;466201;256;1041;-74
2021/05/20 03:28:26;;;;;;;;;;;20.80;41.00;;;;;;466185;255;1077;-74
2021/05/20 03:30:29;;;;;;;;;;;20.70;41.10;;;;;;466145;256;1209;-74
2021/05/20 03:32:29;;;;;;;;;;;20.80;41.00;;;;;;466170;256;1460;-74
2021/05/20 03:34:30;;;;;;;;;;;20.90;40.90;;;;;;466117;256;2196;-74
2021/05/20 03:36:32;;;;;;;;;;;20.80;40.90;;;;;;466174;255;1041;-74
2021/05/20 03:38:33;;;;;;;;;;;20.80;40.80;;;;;;466208;256;1077;-74
2021/05/20 03:40:34;;;;;;;;;;;20.80;40.80;;;;;;466198;255;1014;-74
2021/05/20 03:42:36;;;;;;;;;;;20.90;40.70;;;;;;466241;256;1032;-74
2021/05/20 03:44:37;;;;;;;;;;;20.90;40.60;;;;;;466263;255;1168;-74
2021/05/20 03:46:38;;;;;;;;;;;20.90;40.70;;;;;;466268;255;1038;-74
2021/05/20 03:48:39;;;;;;;;;;;20.80;40.70;;;;;;466309;256;1014;-74
2021/05/20 03:50:41;;;;;;;;;;;20.80;40.80;;;;;;466308;255;1060;-74
2021/05/20 03:52:42;;;;;;;;;;;20.70;40.80;;;;;;466270;255;2209;-74
2021/05/20 03:54:43;;;;;;;;;;;20.70;40.80;;;;;;466168;252;1219;-74
2021/05/20 03:56:44;;;;;;;;;;;20.70;40.80;;;;;;466140;255;1111;-74
2021/05/20 03:58:46;;;;;;;;;;;20.80;40.70;;;;;;466189;254;1002;-74
2021/05/20 04:00:47;;;;;;;;;;;20.80;40.80;;;;;;466214;255;1194;-74
2021/05/20 04:02:48;;;;;;;;;;;20.80;40.60;;;;;;466046;256;1039;-74
2021/05/20 04:04:50;;;;;;;;;;;20.70;40.70;;;;;;466203;256;1083;-74
2021/05/20 04:06:51;;;;;;;;;;;20.80;40.70;;;;;;466188;256;1080;-74
2021/05/20 04:08:52;;;;;;;;;;;20.80;40.60;;;;;;466218;256;1072;-74
2021/05/20 04:10:53;;;;;;;;;;;20.80;40.60;;;;;;466150;256;1439;-74
2021/05/20 04:12:55;;;;;;;;;;;20.80;40.70;;;;;;466210;256;2192;-75
2021/05/20 04:14:56;;;;;;;;;;;20.80;40.70;;;;;;466172;255;1152;-74
2021/05/20 04:16:57;;;;;;;;;;;20.80;40.60;;;;;;466209;255;1233;-74
2021/05/20 04:19:01;;;;;;;;;;;20.80;40.60;;;;;;466152;256;1131;-75
2021/05/20 04:21:00;;;;;;;;;;;20.80;40.60;;;;;;465771;255;1509;-74
2021/05/20 04:23:01;;;;;;;;;;;20.90;40.60;;;;;;465967;256;1062;-74
2021/05/20 04:25:02;;;;;;;;;;;20.80;40.60;;;;;;466027;256;1052;-74
2021/05/20 04:27:05;;;;;;;;;;;20.80;40.60;;;;;;465965;255;1163;-74
2021/05/20 04:29:05;;;;;;;;;;;20.80;40.60;;;;;;465975;256;1415;-74
2021/05/20 04:31:06;;;;;;;;;;;20.70;40.60;;;;;;466025;256;1324;-74
2021/05/20 04:33:07;;;;;;;;;;;20.70;40.70;;;;;;466102;255;2197;-75
2021/05/20 04:35:09;;;;;;;;;;;20.70;40.80;;;;;;466043;256;1053;-74
2021/05/20 04:37:10;;;;;;;;;;;20.60;40.90;;;;;;466005;255;1131;-74
2021/05/20 04:39:11;;;;;;;;;;;20.60;41.00;;;;;;465989;256;1088;-74
2021/05/20 04:41:13;;;;;;;;;;;20.60;40.90;;;;;;465900;255;1099;-74
2021/05/20 04:43:14;;;;;;;;;;;20.60;41.00;;;;;;466082;255;981;-75
2021/05/20 04:45:15;;;;;;;;;;;20.60;41.00;;;;;;466075;256;1186;-75
2021/05/20 04:47:16;;;;;;;;;;;20.60;41.00;;;;;;465913;256;1104;-74
2021/05/20 04:49:18;;;;;;;;;;;20.60;40.90;;;;;;465799;256;1195;-74
2021/05/20 04:51:19;;;;;;;;;;;20.70;41.00;;;;;;465779;255;1114;-75
2021/05/20 04:53:20;;;;;;;;;;;20.70;41.00;;;;;;465853;256;2188;-74
2021/05/20 04:55:21;;;;;;;;;;;20.70;40.90;;;;;;465829;255;1083;-74
2021/05/20 04:57:23;;;;;;;;;;;20.70;40.90;;;;;;466091;252;1386;-74
2021/05/20 04:59:24;;;;;;;;;;;20.80;40.90;;;;;;465929;255;1078;-75
2021/05/20 05:01:26;;;;;;;;;;;20.80;40.90;;;;;;465901;255;1132;-75
2021/05/20 05:03:27;;;;;;;;;;;20.80;40.80;;;;;;465954;256;1067;-75
2021/05/20 05:05:28;;;;;;;;;;;20.70;40.90;;;;;;465940;255;1084;-76
2021/05/20 05:07:30;;;;;;;;;;;20.70;41.00;;;;;;465919;256;1236;-75
2021/05/20 05:09:31;;;;;;;;;;;20.70;41.10;;;;;;465793;256;1106;-74
2021/05/20 05:11:32;;;;;;;;;;;20.70;41.00;;;;;;465744;256;1084;-74
2021/05/20 05:13:33;;;;;;;;;;;20.70;41.00;;;;;;465783;256;2204;-74
2021/05/20 05:15:35;;;;;;;;;;;20.70;41.00;;;;;;465797;256;1206;-74
2021/05/20 05:17:37;;;;;;;;;;;20.80;41.00;;;;;;465812;256;1038;-74
2021/05/20 05:19:37;;;;;;;;;;;20.80;41.00;;;;;;465805;256;1413;-74
2021/05/20 05:21:38;;;;;;;;;;;20.80;41.00;;;;;;465921;255;1098;-74
2021/05/20 05:23:40;;;;;;;;;;;20.80;40.80;;;;;;465943;256;1064;-74
2021/05/20 05:25:41;;;;;;;;;;;20.90;40.90;;;;;;465994;255;1262;-74
2021/05/20 05:27:42;;;;;;;;;;;20.90;40.80;;;;;;465941;256;1101;-74
2021/05/20 05:29:44;;;;;;;;;;;20.90;40.80;;;;;;465872;256;1057;-75
2021/05/20 05:31:45;;;;;;;;;;;21.00;40.70;;;;;;465837;255;1214;-74
2021/05/20 05:33:46;;;;;;;;;;;21.00;40.70;;;;;;465903;256;2200;-74
2021/05/20 05:35:47;;;;;;;;;;;21.00;40.50;;;;;;465876;255;1034;-75
2021/05/20 05:37:49;;;;;;;;;;;21.10;40.50;;;;;;465921;256;1095;-75
2021/05/20 05:39:50;;;;;;;;;;;21.00;40.60;;;;;;465915;255;1220;-75
2021/05/20 05:41:51;;;;;;;;;;;21.00;40.50;;;;;;465845;255;1041;-74
2021/05/20 05:43:52;;;;;;;;;;;21.00;40.60;;;;;;465831;256;1067;-75
2021/05/20 05:45:54;;;;;;;;;;;21.00;40.60;;;;;;465797;256;1072;-75
2021/05/20 05:47:55;;;;;;;;;;;21.00;40.60;;;;;;465869;255;1206;-74
2021/05/20 05:49:57;;;;;;;;;;;21.00;40.80;;;;;;465726;256;1172;-74
2021/05/20 05:52:00;;;;;;;;;;;21.00;40.80;;;;;;465773;256;1132;-74
2021/05/20 05:53:59;;;;;;;;;;;21.00;40.70;;;;;;465635;255;2246;-74
2021/05/20 05:56:00;;;;;;;;;;;20.90;40.80;;;;;;465564;256;1209;-74
2021/05/20 05:58:01;;;;;;;;;;;20.90;40.80;;;;;;465720;256;1176;-75
2021/05/20 06:00:03;;;;;;;;;;;20.90;40.80;;;;;;465628;256;1413;-75
2021/05/20 06:02:04;;;;;;;;;;;20.90;40.90;;;;;;465545;255;1256;-74
2021/05/20 06:04:05;;;;;;;;;;;21.00;40.90;;;;;;465600;255;1092;-74
2021/05/20 06:06:07;;;;;;;;;;;21.00;40.80;;;;;;465441;255;1206;-74
2021/05/20 06:08:08;;;;;;;;;;;21.00;40.80;;;;;;465668;256;1165;-74
2021/05/20 06:10:09;;;;;;;;;;;21.00;40.90;;;;;;465655;256;1282;-74
2021/05/20 06:12:10;;;;;;;;;;;21.00;40.90;;;;;;465536;255;1152;-75
2021/05/20 06:14:12;;;;;;;;;;;21.00;40.80;;;;;;465461;256;2401;-74
2021/05/20 06:16:13;;;;;;;;;;;21.00;40.70;;;;;;465471;256;1267;-75
2021/05/20 06:18:14;;;;;;;;;;;21.00;40.80;;;;;;465760;255;1101;-75
2021/05/20 06:20:16;;;;;;;;;;;21.00;40.90;;;;;;465613;256;1144;-74
2021/05/20 06:22:17;;;;;;;;;;;21.00;40.80;;;;;;465601;255;1607;-75
2021/05/20 06:24:18;;;;;;;;;;;21.00;40.80;;;;;;465524;255;1073;-74
2021/05/20 06:26:19;;;;;;;;;;;21.00;40.90;;;;;;465517;256;1328;-74
2021/05/20 06:28:21;;;;;;;;;;;21.00;40.80;;;;;;465772;255;1160;-74
2021/05/20 06:30:22;;;;;;;;;;;21.00;40.90;;;;;;465447;256;1143;-74
2021/05/20 06:32:23;;;;;;;;;;;21.00;40.90;;;;;;465487;256;1178;-75
2021/05/20 06:34:24;;;;;;;;;;;21.10;40.70;;;;;;465411;255;2189;-75
2021/05/20 06:36:26;;;;;;;;;;;21.10;40.80;;;;;;465590;255;1156;-74
2021/05/20 06:38:27;;;;;;;;;;;21.10;40.80;;;;;;465677;256;1151;-75
2021/05/20 06:40:28;;;;;;;;;;;21.10;40.80;;;;;;465613;256;1207;-74
2021/05/20 06:42:30;;;;;;;;;;;21.10;40.80;;;;;;465593;256;1269;-75
2021/05/20 06:44:31;;;;;;;;;;;21.10;40.80;;;;;;465632;255;1048;-75
2021/05/20 06:46:34;;;;;;;;;;;21.20;40.70;;;;;;465592;255;1166;-74
2021/05/20 06:48:34;;;;;;;;;;;21.10;40.70;;;;;;465491;255;1245;-74
2021/05/20 06:50:35;;;;;;;;;;;21.00;40.80;;;;;;465432;255;1347;-74
2021/05/20 06:52:37;;;;;;;;;;;21.00;41.00;;;;;;465391;256;1101;-74
2021/05/20 06:54:37;;;;;;;;;;;21.10;40.80;;;;;;465198;255;2200;-74
2021/05/20 06:56:41;;;;;;;;;;;21.00;40.80;;;;;;465162;252;1280;-74
2021/05/20 07:00:59;;;;;;;;;;;21.10;40.70;;;;;;465391;255;1172;-74
2021/05/20 07:03:01;;;;;;;;;;;21.10;40.80;;;;;;465312;255;1179;-75
2021/05/20 07:05:02;;;;;;;;;;;21.20;40.70;;;;;;465156;256;1072;-74
2021/05/20 07:07:03;;;;;;;;;;;21.10;40.80;;;;;;465172;255;1213;-75
2021/05/20 07:09:05;;;;;;;;;;;21.10;40.80;;;;;;465378;255;1167;-75
2021/05/20 07:11:06;;;;;;;;;;;21.20;40.80;;;;;;465296;255;1218;-74
2021/05/20 07:13:07;;;;;;;;;;;21.20;40.80;;;;;;465409;252;1136;-74
2021/05/20 07:15:08;;;;;;;;;;;21.10;40.80;;;;;;465247;256;2178;-74
2021/05/20 07:17:10;;;;;;;;;;;21.00;40.80;;;;;;465152;256;1345;-75
2021/05/20 07:19:11;;;;;;;;;;;21.00;41.00;;;;;;465538;256;1089;-75
2021/05/20 07:21:12;;;;;;;;;;;21.00;41.00;;;;;;465948;255;1373;-74
2021/05/20 07:23:14;;;;;;;;;;;20.90;41.10;;;;;;465473;256;1221;-74
2021/05/20 07:25:15;;;;;;;;;;;21.00;41.10;;;;;;465289;255;1340;-75
2021/05/20 07:27:16;;;;;;;;;;;21.00;41.00;;;;;;465196;256;1196;-75
2021/05/20 07:29:18;;;;;;;;;;;21.00;40.90;;;;;;465432;255;1164;-75
2021/05/20 07:31:19;;;;;;;;;;;21.10;41.00;;;;;;465269;255;1202;-75
2021/05/20 07:33:22;;;;;;;;;;;21.20;40.80;;;;;;465114;256;1149;-75
2021/05/20 07:35:22;;;;;;;;;;;21.10;41.10;;;;;;465071;256;2193;-74
2021/05/20 07:37:23;;;;;;;;;;;21.00;41.10;;;;;;465255;256;1162;-74
2021/05/20 07:39:24;;;;;;;;;;;21.10;41.10;;;;;;465158;256;1137;-75
2021/05/20 07:41:28;;;;;;;;;;;21.10;41.10;;;;;;465344;256;1064;-75
2021/05/20 07:43:27;;;;;;;;;;;21.00;41.00;;;;;;465390;255;1287;-74
2021/05/20 07:45:28;;;;;;;;;;;21.00;41.10;;;;;;465347;255;1037;-74
2021/05/20 07:47:30;;;;;;;;;;;21.00;41.00;;;;;;465333;255;1096;-75
2021/05/20 07:49:32;;;;;;;;;;;21.00;41.00;;;;;;465444;256;1169;-74
2021/05/20 07:51:32;;;;;;;;;;;21.00;41.00;;;;;;465295;255;1315;-74
2021/05/20 07:53:34;;;;;;;;;;;21.00;41.00;;;;;;465175;255;1111;-74
2021/05/20 07:55:35;;;;;;;;;;;21.00;40.90;;;;;;464768;256;2213;-74
2021/05/20 07:57:36;;;;;;;;;;;21.00;40.80;;;;;;464865;255;1150;-74
2021/05/20 07:59:37;;;;;;;;;;;21.00;40.80;;;;;;465042;255;1097;-74
2021/05/20 08:01:45;;;;;;;;;;;21.10;40.90;;;;;;465135;255;1114;-74
2021/05/20 08:03:43;;;;;;;;;;;21.10;41.00;;;;;;464919;255;1439;-74
2021/05/20 08:05:50;;;;;;;;;;;21.00;41.10;;;;;;464964;255;1412;-74
2021/05/20 08:07:49;;;;;;;;;;;21.00;41.20;;;;;;464898;255;2319;-74
2021/05/20 08:09:49;;;;;;;;;;;21.00;41.30;;;;;;465608;255;1209;-74
2021/05/20 08:11:48;;;;;;;;;;;20.90;41.30;;;;;;465904;255;1376;-74
2021/05/20 08:13:50;;;;;;;;;;;20.90;41.40;;;;;;466018;255;898;-75
2021/05/20 08:15:51;;;;;;;;;;;21.00;41.40;;;;;;465829;255;2205;-74
2021/05/20 08:17:52;;;;;;;;;;;21.00;41.10;;;;;;465646;256;1113;-75
2021/05/20 08:19:54;;;;;;;;;;;21.10;41.00;;;;;;465438;256;1157;-74
2021/05/20 08:21:55;;;;;;;;;;;21.00;40.90;;;;;;465348;256;1099;-74
2021/05/20 08:23:56;;;;;;;;;;;21.10;41.00;;;;;;465414;256;1094;-75
2021/05/20 08:25:57;;;;;;;;;;;21.00;40.90;;;;;;465194;256;1070;-74
2021/05/20 08:27:59;;;;;;;;;;;21.00;41.20;;;;;;465245;255;1138;-74
2021/05/20 08:30:00;;;;;;;;;;;20.90;41.20;;;;;;465201;255;1448;-74
2021/05/20 08:32:01;;;;;;;;;;;20.90;41.20;;;;;;465200;256;1104;-74
2021/05/20 08:34:03;;;;;;;;;;;20.90;41.30;;;;;;465206;255;1147;-74
2021/05/20 08:36:04;;;;;;;;;;;21.00;41.20;;;;;;465240;255;2177;-74
2021/05/20 08:38:05;;;;;;;;;;;20.90;41.30;;;;;;465518;255;1155;-74
2021/05/20 08:40:06;;;;;;;;;;;20.90;41.20;;;;;;466004;255;1226;-75
2021/05/20 08:42:08;;;;;;;;;;;20.90;41.20;;;;;;465624;256;888;-75
2021/05/20 08:44:11;;;;;;;;;;;20.90;41.10;;;;;;466004;255;778;-75
2021/05/20 08:46:10;;;;;;;;;;;20.80;41.10;;;;;;465844;255;1234;-75
2021/05/20 08:48:12;;;;;;;;;;;20.90;41.00;;;;;;465421;256;1171;-74
2021/05/20 08:50:13;;;;;;;;;;;20.90;40.90;;;;;;465588;255;1357;-74
2021/05/20 08:52:15;;;;;;;;;;;20.90;40.80;;;;;;465373;255;1109;-74
2021/05/20 08:54:15;;;;;;;;;;;20.90;41.00;;;;;;465373;256;1192;-75
2021/05/20 08:56:17;;;;;;;;;;;20.80;41.00;;;;;;465399;255;2122;-75
2021/05/20 08:58:24;;;;;;;;;;;20.80;41.00;;;;;;465398;255;1210;-75
2021/05/20 09:00:20;;;;;;;;;;;20.70;41.10;;;;;;465213;255;1328;-75
2021/05/20 09:02:21;;;;;;;;;;;20.70;41.10;;;;;;465764;255;1201;-75
2021/05/20 09:04:22;;;;;;;;;;;20.70;41.00;;;;;;465219;256;1095;-75
2021/05/20 09:06:23;;;;;;;;;;;20.80;40.90;;;;;;465015;256;1272;-74
2021/05/20 09:08:28;;;;;;;;;;;21.00;40.70;;;;;;465338;252;1170;-74
2021/05/20 09:10:26;;;;;;;;;;;20.90;40.50;;;;;;465476;255;1314;-74
2021/05/20 09:12:27;;;;;;;;;;;20.90;40.50;;;;;;465219;256;1211;-74
2021/05/20 09:14:30;;;;;;;;;;;20.90;40.60;;;;;;465248;255;2150;-74
2021/05/20 09:16:31;;;;;;;;;;;20.90;40.60;;;;;;465318;256;1109;-75
2021/05/20 09:18:32;;;;;;;;;;;20.80;40.60;;;;;;465411;256;1263;-74
2021/05/20 09:20:34;;;;;;;;;;;20.80;40.60;;;;;;465392;256;1336;-74
2021/05/20 09:22:36;;;;;;;;;;;20.80;40.60;;;;;;465472;256;1083;-74
2021/05/20 09:24:37;;;;;;;;;;;20.80;40.50;;;;;;465447;256;1369;-74
2021/05/20 09:26:38;;;;;;;;;;;20.90;40.50;;;;;;464568;256;1091;-75
2021/05/20 09:28:41;;;;;;;;;;;20.90;40.40;;;;;;465955;255;792;-75
2021/05/20 09:30:41;;;;;;;;;;;20.80;40.40;;;;;;465914;252;1293;-75
2021/05/20 09:32:42;;;;;;;;;;;20.90;40.40;;;;;;464616;256;1076;-75
2021/05/20 09:34:43;;;;;;;;;;;20.90;40.20;;;;;;465493;256;2217;-75
2021/05/20 09:36:44;;;;;;;;;;;20.90;40.20;;;;;;465711;255;1129;-75
2021/05/20 09:38:46;;;;;;;;;;;20.90;40.20;;;;;;466014;255;771;-75
2021/05/20 09:40:48;;;;;;;;;;;20.90;40.30;;;;;;465529;256;824;-74
2021/05/20 09:42:48;;;;;;;;;;;20.80;40.30;;;;;;465949;255;2332;-75
2021/05/20 09:44:49;;;;;;;;;;;20.90;40.40;;;;;;465743;256;901;-74
2021/05/20 09:46:51;;;;;;;;;;;20.80;40.60;;;;;;465704;256;964;-74
2021/05/20 09:48:52;;;;;;;;;;;20.70;40.60;;;;;;466062;255;995;-75
2021/05/20 09:50:53;;;;;;;;;;;20.70;40.70;;;;;;465771;255;1084;-74
2021/05/20 09:52:55;;;;;;;;;;;20.70;40.70;;;;;;465681;256;916;-74
2021/05/20 09:54:56;;;;;;;;;;;20.70;40.80;;;;;;465858;255;2506;-75
2021/05/20 09:56:57;;;;;;;;;;;20.70;40.80;;;;;;465288;256;1076;-74
2021/05/20 09:58:58;;;;;;;;;;;20.70;40.90;;;;;;465348;256;1273;-75
2021/05/20 10:01:00;;;;;;;;;;;20.70;41.00;;;;;;465390;256;1060;-75
2021/05/20 10:03:01;;;;;;;;;;;20.60;41.10;;;;;;465267;255;1322;-75
2021/05/20 10:05:02;;;;;;;;;;;20.70;41.20;;;;;;465305;256;1235;-75
2021/05/20 10:07:03;;;;;;;;;;;20.70;41.20;;;;;;465349;255;1199;-75
2021/05/20 10:09:05;;;;;;;;;;;20.80;41.10;;;;;;465379;255;1467;-75
2021/05/20 10:11:06;;;;;;;;;;;20.80;41.10;;;;;;465192;256;1198;-74
2021/05/20 10:13:07;;;;;;;;;;;20.80;41.30;;;;;;465192;255;1292;-74
2021/05/20 10:15:09;;;;;;;;;;;20.80;41.40;;;;;;465127;255;2161;-74
2021/05/20 10:17:10;;;;;;;;;;;20.90;41.30;;;;;;465369;256;1120;-74
2021/05/20 10:19:11;;;;;;;;;;;20.80;41.20;;;;;;465444;256;1171;-74
2021/05/20 10:21:12;;;;;;;;;;;20.90;41.20;;;;;;465337;255;1260;-74
2021/05/20 10:23:14;;;;;;;;;;;20.90;41.20;;;;;;465377;256;982;-74
2021/05/20 10:25:15;;;;;;;;;;;20.90;41.30;;;;;;465394;256;1068;-75
2021/05/20 10:27:17;;;;;;;;;;;20.90;41.30;;;;;;465388;256;1104;-74
2021/05/20 10:29:17;;;;;;;;;;;20.80;41.30;;;;;;464854;256;1366;-75
2021/05/20 10:31:19;;;;;;;;;;;20.70;41.30;;;;;;465522;256;1176;-75
2021/05/20 10:33:20;;;;;;;;;;;20.70;41.40;;;;;;464712;256;1125;-74
2021/05/20 10:35:21;;;;;;;;;;;20.70;41.40;;;;;;465334;255;2198;-75
2021/05/20 10:37:23;;;;;;;;;;;20.80;41.30;;;;;;465378;256;1216;-74
2021/05/20 10:39:24;;;;;;;;;;;20.80;41.20;;;;;;465430;255;1189;-74
2021/05/20 10:41:26;;;;;;;;;;;20.80;41.30;;;;;;465354;256;1063;-74
2021/05/20 10:43:26;;;;;;;;;;;20.80;41.30;;;;;;465416;255;1335;-75
2021/05/20 10:45:28;;;;;;;;;;;20.80;41.30;;;;;;465361;256;1061;-75
2021/05/20 10:47:29;;;;;;;;;;;20.80;41.30;;;;;;465624;256;1143;-74
2021/05/20 10:49:30;;;;;;;;;;;20.90;41.40;;;;;;465454;256;1181;-74
2021/05/20 10:51:32;;;;;;;;;;;20.80;41.50;;;;;;464540;256;1263;-75
2021/05/20 10:53:33;;;;;;;;;;;20.80;41.70;;;;;;465001;256;1295;-74
2021/05/20 10:55:34;;;;;;;;;;;20.80;41.90;;;;;;464956;255;2193;-74
2021/05/20 10:57:35;;;;;;;;;;;20.80;42.00;;;;;;465087;256;1141;-74
2021/05/20 10:59:37;;;;;;;;;;;20.70;42.10;;;;;;465281;255;1012;-74
2021/05/20 11:01:38;;;;;;;;;;;20.80;42.20;;;;;;465061;256;1246;-74
2021/05/20 11:03:39;;;;;;;;;;;20.70;42.30;;;;;;465067;256;1091;-74
2021/05/20 11:05:40;;;;;;;;;;;20.80;42.30;;;;;;465232;255;1224;-74
2021/05/20 11:07:42;;;;;;;;;;;20.70;42.50;;;;;;465192;255;1264;-74
2021/05/20 11:09:43;;;;;;;;;;;20.80;42.50;;;;;;465402;256;1117;-75
2021/05/20 11:11:44;;;;;;;;;;;20.80;42.60;;;;;;465396;256;1189;-74
2021/05/20 11:13:46;;;;;;;;;;;20.80;42.50;;;;;;465119;255;803;-75
2021/05/20 11:15:47;;;;;;;;;;;20.90;42.40;;;;;;466034;255;2201;-74
2021/05/20 11:17:48;;;;;;;;;;;20.90;42.40;;;;;;465704;255;1167;-75
2021/05/20 11:19:50;;;;;;;;;;;21.00;42.40;;;;;;465512;256;1057;-75
2021/05/20 11:21:51;;;;;;;;;;;20.80;42.50;;;;;;465394;256;1378;-75
2021/05/20 11:23:52;;;;;;;;;;;20.80;42.50;;;;;;465162;256;1059;-75
2021/05/20 11:25:53;;;;;;;;;;;20.90;42.50;;;;;;465131;255;1212;-75
2021/05/20 11:27:55;;;;;;;;;;;20.90;42.40;;;;;;465220;256;1139;-75
2021/05/20 11:29:56;;;;;;;;;;;20.90;42.40;;;;;;465193;256;1322;-75
2021/05/20 11:32:00;;;;;;;;;;;20.90;42.40;;;;;;465086;256;1254;-75
2021/05/20 11:34:06;;;;;;;;;;;20.90;42.40;;;;;;465199;255;1293;-75
2021/05/20 11:36:11;;;;;;;;;;;20.90;42.40;;;;;;465029;253;2197;-75
2021/05/20 11:38:11;;;;;;;;;;;20.90;42.50;;;;;;465473;256;1373;-75
2021/05/20 11:40:12;;;;;;;;;;;20.90;42.60;;;;;;465108;256;1228;-74
2021/05/20 11:42:13;;;;;;;;;;;20.90;42.70;;;;;;465307;255;1028;-75
2021/05/20 11:44:15;;;;;;;;;;;20.90;42.80;;;;;;465038;256;1138;-75
2021/05/20 11:46:16;;;;;;;;;;;20.90;42.80;;;;;;465083;255;1071;-75
2021/05/20 11:48:17;;;;;;;;;;;20.80;42.70;;;;;;465195;255;1119;-75
2021/05/20 11:50:19;;;;;;;;;;;20.90;42.70;;;;;;465187;255;1264;-74
2021/05/20 11:52:20;;;;;;;;;;;20.80;42.60;;;;;;465543;252;1315;-75
2021/05/20 11:54:21;;;;;;;;;;;20.80;42.70;;;;;;465426;256;1167;-74
2021/05/20 11:56:22;;;;;;;;;;;20.90;42.60;;;;;;465292;255;2185;-75
2021/05/20 11:58:24;;;;;;;;;;;20.90;42.30;;;;;;465425;256;1132;-74